createdAt,value
2018-02-21T00:01:21.897Z,61.30
2018-02-21T00:03:49.401Z,61.40
2018-02-21T00:06:16.897Z,61.60
2018-02-21T00:08:44.397Z,61.80
2018-02-21T00:11:11.889Z,61.80
2018-02-21T00:13:39.392Z,62.20
2018-02-21T00:16:07.645Z,62.00
2018-02-21T00:18:35.141Z,61.90
2018-02-21T00:21:02.650Z,61.80
2018-02-21T00:23:30.150Z,61.50
2018-02-21T00:25:58.413Z,62.00
2018-02-21T00:28:27.629Z,63.10
2018-02-21T00:30:55.121Z,62.20
2018-02-21T00:33:22.622Z,62.10
2018-02-21T00:35:50.899Z,62.60
2018-02-21T00:38:19.172Z,62.80
2018-02-21T00:40:47.437Z,63.40
2018-02-21T00:43:16.524Z,62.50
2018-02-21T00:45:44.053Z,62.50
2018-02-21T00:48:11.627Z,62.50
2018-02-21T00:50:39.825Z,63.60
2018-02-21T00:53:07.346Z,63.10
2018-02-21T00:55:34.855Z,63.30
2018-02-21T00:58:03.179Z,64.40
2018-02-21T01:00:30.701Z,63.40
2018-02-21T01:02:58.197Z,63.40
2018-02-21T01:05:25.668Z,63.70
2018-02-21T01:07:53.165Z,63.70
2018-02-21T01:10:21.413Z,63.50
2018-02-21T01:12:48.896Z,63.30
2018-02-21T01:15:17.227Z,63.50
2018-02-21T01:17:44.716Z,63.30
2018-02-21T01:20:12.291Z,63.30
2018-02-21T01:22:40.567Z,63.40
2018-02-21T01:25:08.844Z,63.40
2018-02-21T01:27:37.096Z,64.10
2018-02-21T01:30:04.580Z,64.10
2018-02-21T01:32:32.828Z,64.20
2018-02-21T01:35:00.316Z,64.10
2018-02-21T01:37:28.579Z,64.10
2018-02-21T01:39:56.828Z,64.20
2018-02-21T01:42:24.313Z,64.10
2018-02-21T01:44:52.592Z,64.10
2018-02-21T01:47:20.835Z,64.10
2018-02-21T01:49:48.317Z,63.90
2018-02-21T01:52:16.606Z,64.90
2018-02-21T01:54:44.880Z,64.60
2018-02-21T01:57:13.156Z,64.80
2018-02-21T01:59:41.416Z,64.80
2018-02-21T02:02:09.677Z,65.00
2018-02-21T02:04:37.252Z,64.40
2018-02-21T02:07:04.750Z,64.80
2018-02-21T02:09:32.236Z,64.70
2018-02-21T02:11:59.768Z,64.60
2018-02-21T02:14:27.253Z,64.90
2018-02-21T02:16:54.845Z,64.90
2018-02-21T02:19:23.094Z,65.30
2018-02-21T02:21:50.571Z,65.30
2018-02-21T02:24:18.073Z,65.10
2018-02-21T02:26:45.560Z,65.10
2018-02-21T02:29:13.041Z,65.10
2018-02-21T02:31:40.559Z,65.40
2018-02-21T02:34:08.048Z,65.20
2018-02-21T02:36:35.629Z,65.60
2018-02-21T02:39:15.743Z,66.00
2018-02-21T02:41:43.220Z,65.90
2018-02-21T02:44:10.706Z,66.20
2018-02-21T02:46:39.044Z,66.20
2018-02-21T02:49:06.631Z,66.10
2018-02-21T02:51:34.895Z,66.70
2018-02-21T02:54:03.155Z,66.80
2018-02-21T02:56:30.649Z,66.70
2018-02-21T02:58:58.910Z,67.10
2018-02-21T03:01:27.166Z,66.80
2018-02-21T03:03:54.645Z,66.90
2018-02-21T03:06:22.893Z,66.70
2018-02-21T03:08:50.402Z,66.60
2018-02-21T03:11:17.896Z,67.10
2018-02-21T03:13:45.380Z,66.80
2018-02-21T03:16:13.738Z,66.90
2018-02-21T03:18:41.352Z,67.20
2018-02-21T03:21:09.015Z,66.50
2018-02-21T03:23:36.719Z,66.80
2018-02-21T03:26:04.213Z,67.00
2018-02-21T03:28:32.578Z,67.30
2018-02-21T03:31:00.272Z,67.30
2018-02-21T03:33:27.874Z,67.70
2018-02-21T03:35:55.364Z,67.50
2018-02-21T03:38:23.196Z,67.60
2018-02-21T03:40:50.911Z,67.60
2018-02-21T03:43:18.503Z,67.60
2018-02-21T03:45:46.150Z,67.50
2018-02-21T03:48:13.833Z,67.40
2018-02-21T03:50:41.448Z,67.90
2018-02-21T03:53:09.692Z,67.80
2018-02-21T03:55:37.243Z,67.70
2018-02-21T03:58:04.832Z,67.80
2018-02-21T04:00:33.071Z,68.30
2018-02-21T04:03:00.559Z,68.30
2018-02-21T04:05:28.044Z,68.30
2018-02-21T04:07:55.536Z,68.00
2018-02-21T04:10:23.015Z,67.70
2018-02-21T04:12:50.495Z,67.90
2018-02-21T04:15:18.747Z,67.90
2018-02-21T04:17:46.324Z,67.90
2018-02-21T04:20:14.564Z,69.00
2018-02-21T04:22:42.056Z,68.80
2018-02-21T04:25:10.300Z,68.60
2018-02-21T04:27:37.909Z,68.50
2018-02-21T04:30:06.207Z,69.30
2018-02-21T04:32:33.688Z,69.30
2018-02-21T04:35:01.175Z,69.70
2018-02-21T04:37:28.735Z,69.50
2018-02-21T04:39:56.227Z,70.20
2018-02-21T04:42:23.797Z,70.80
2018-02-21T04:44:51.302Z,70.00
2018-02-21T04:47:18.786Z,70.00
2018-02-21T04:49:46.284Z,69.70
2018-02-21T04:52:13.879Z,69.70
2018-02-21T04:54:47.128Z,69.80
2018-02-21T04:57:20.432Z,69.60
2018-02-21T04:59:48.701Z,69.70
2018-02-21T05:02:16.181Z,70.00
2018-02-21T05:04:43.659Z,69.80
2018-02-21T05:07:11.137Z,70.20
2018-02-21T05:09:39.388Z,70.30
2018-02-21T05:12:06.880Z,70.20
2018-02-21T05:14:34.389Z,70.50
2018-02-21T05:17:02.772Z,70.40
2018-02-21T05:19:31.756Z,70.40
2018-02-21T05:21:59.237Z,70.40
2018-02-21T05:24:26.805Z,70.70
2018-02-21T05:26:55.061Z,70.90
2018-02-21T05:29:22.545Z,70.80
2018-02-21T05:31:50.844Z,71.00
2018-02-21T05:34:18.329Z,71.00
2018-02-21T05:36:45.816Z,71.50
2018-02-21T05:39:13.295Z,71.20
2018-02-21T05:41:40.846Z,71.60
2018-02-21T05:44:09.116Z,71.30
2018-02-21T05:46:37.383Z,71.40
2018-02-21T05:49:05.636Z,72.30
2018-02-21T05:51:33.136Z,71.40
2018-02-21T05:54:01.379Z,71.60
2018-02-21T05:56:28.862Z,71.60
2018-02-21T05:58:57.133Z,72.20
2018-02-21T06:01:25.380Z,72.40
2018-02-21T06:03:52.968Z,72.40
2018-02-21T06:06:21.209Z,72.20
2018-02-21T06:08:48.812Z,72.20
2018-02-21T06:11:17.080Z,72.30
2018-02-21T06:13:45.390Z,72.00
2018-02-21T06:16:12.868Z,72.00
2018-02-21T06:18:40.351Z,72.50
2018-02-21T06:21:07.830Z,72.30
2018-02-21T06:23:36.090Z,72.80
2018-02-21T06:26:03.639Z,72.60
2018-02-21T06:28:31.148Z,72.80
2018-02-21T06:30:58.635Z,73.20
2018-02-21T06:33:26.125Z,73.10
2018-02-21T06:35:54.386Z,72.90
2018-02-21T06:38:21.863Z,73.30
2018-02-21T06:40:50.117Z,72.90
2018-02-21T06:43:17.597Z,73.00
2018-02-21T06:45:45.852Z,72.80
2018-02-21T06:48:13.341Z,72.80
2018-02-21T06:50:41.588Z,72.90
2018-02-21T06:53:09.160Z,72.80
2018-02-21T06:55:37.420Z,72.80
2018-02-21T06:58:04.904Z,72.80
2018-02-21T07:00:33.157Z,72.60
2018-02-21T07:03:00.640Z,72.60
2018-02-21T07:05:28.891Z,72.40
2018-02-21T07:07:57.136Z,72.50
2018-02-21T07:10:24.619Z,72.40
2018-02-21T07:12:52.112Z,72.40
2018-02-21T07:15:19.624Z,72.50
2018-02-21T07:17:47.082Z,72.50
2018-02-21T07:20:14.664Z,72.50
2018-02-21T07:22:42.244Z,72.60
2018-02-21T07:25:09.818Z,73.90
2018-02-21T07:27:37.322Z,73.00
2018-02-21T07:30:04.808Z,72.80
2018-02-21T07:32:33.071Z,72.80
2018-02-21T07:35:01.322Z,72.20
2018-02-21T07:37:28.805Z,72.20
2018-02-21T07:39:57.056Z,72.60
2018-02-21T07:42:24.544Z,72.50
2018-02-21T07:44:52.786Z,72.70
2018-02-21T07:47:20.292Z,72.60
2018-02-21T07:49:47.834Z,73.00
2018-02-21T07:52:16.104Z,72.60
2018-02-21T07:54:44.364Z,72.50
2018-02-21T07:57:11.958Z,72.50
2018-02-21T07:59:39.437Z,72.30
2018-02-21T08:02:06.930Z,72.20
2018-02-21T08:04:34.431Z,71.70
2018-02-21T08:07:02.552Z,71.40
2018-02-21T08:09:30.141Z,71.00
2018-02-21T08:11:58.417Z,70.60
2018-02-21T08:14:26.708Z,71.20
2018-02-21T08:16:54.192Z,71.20
2018-02-21T08:19:21.682Z,71.40
2018-02-21T08:21:49.170Z,71.20
2018-02-21T08:24:17.673Z,69.70
2018-02-21T08:26:45.289Z,69.60
2018-02-21T08:29:12.979Z,69.60
2018-02-21T08:31:41.690Z,68.00
2018-02-21T08:34:09.226Z,67.90
2018-02-21T08:36:37.564Z,67.30
2018-02-21T08:39:05.032Z,67.30
2018-02-21T08:41:32.504Z,67.20
2018-02-21T08:44:00.760Z,68.40
2018-02-21T08:46:28.248Z,68.30
2018-02-21T08:48:56.495Z,68.90
2018-02-21T08:51:23.990Z,68.90
2018-02-21T08:53:51.464Z,68.20
2018-02-21T08:56:18.975Z,68.10
2018-02-21T08:58:47.284Z,67.00
2018-02-21T09:01:14.856Z,67.50
2018-02-21T09:03:42.337Z,68.80
2018-02-21T09:06:09.872Z,68.10
2018-02-21T09:08:37.349Z,65.30
2018-02-21T09:11:04.832Z,64.10
2018-02-21T09:13:33.072Z,60.40
2018-02-21T09:16:00.573Z,60.40
2018-02-21T09:18:28.832Z,58.90
2018-02-21T09:20:56.327Z,58.80
2018-02-21T09:23:23.804Z,59.20
2018-02-21T09:25:51.328Z,58.80
2018-02-21T09:28:19.579Z,58.80
2018-02-21T09:30:47.052Z,58.80
2018-02-21T09:33:14.540Z,60.40
2018-02-21T09:35:42.019Z,61.00
2018-02-21T09:38:09.573Z,61.20
2018-02-21T09:40:37.075Z,61.80
2018-02-21T09:43:04.564Z,62.50
2018-02-21T09:45:32.048Z,59.60
2018-02-21T09:47:59.528Z,59.30
2018-02-21T09:50:27.012Z,59.70
2018-02-21T09:52:54.572Z,60.60
2018-02-21T09:55:22.825Z,61.30
2018-02-21T09:57:50.303Z,61.20
2018-02-21T10:00:17.784Z,59.90
2018-02-21T10:02:45.308Z,58.60
2018-02-21T10:05:12.898Z,59.10
2018-02-21T10:07:40.380Z,59.20
2018-02-21T10:10:07.868Z,58.80
2018-02-21T10:12:35.357Z,58.40
2018-02-21T10:15:03.666Z,56.90
2018-02-21T10:17:31.945Z,56.40
2018-02-21T10:19:59.432Z,56.40
2018-02-21T10:22:26.918Z,56.00
2018-02-21T10:24:55.176Z,55.60
2018-02-21T10:27:22.651Z,55.50
2018-02-21T10:29:50.904Z,54.60
2018-02-21T10:32:18.381Z,54.50
2018-02-21T10:34:45.941Z,54.30
2018-02-21T10:37:13.655Z,52.80
2018-02-21T10:39:41.152Z,50.10
2018-02-21T10:42:08.631Z,47.80
2018-02-21T10:44:36.894Z,48.80
2018-02-21T10:47:04.376Z,48.70
2018-02-21T10:49:31.873Z,47.00
2018-02-21T10:51:59.406Z,44.70
2018-02-21T10:54:26.924Z,46.00
2018-02-21T10:56:55.179Z,42.40
2018-02-21T10:59:22.767Z,42.20
2018-02-21T11:01:51.028Z,43.20
2018-02-21T11:04:19.285Z,45.10
2018-02-21T11:06:46.883Z,45.00
2018-02-21T11:09:14.438Z,43.30
2018-02-21T11:11:42.703Z,42.30
2018-02-21T11:14:10.955Z,41.90
2018-02-21T11:16:38.450Z,41.70
2018-02-21T11:19:06.716Z,41.30
2018-02-21T11:21:35.031Z,41.60
2018-02-21T11:24:02.520Z,41.50
2018-02-21T11:26:30.112Z,40.60
2018-02-21T11:28:58.367Z,44.00
2018-02-21T11:31:25.945Z,43.90
2018-02-21T11:33:54.224Z,45.80
2018-02-21T11:36:22.495Z,45.60
2018-02-21T11:38:50.752Z,46.30
2018-02-21T11:41:18.348Z,46.30
2018-02-21T11:43:45.835Z,48.10
2018-02-21T11:46:13.320Z,47.40
2018-02-21T11:48:40.804Z,47.80
2018-02-21T11:51:09.063Z,45.40
2018-02-21T11:53:37.321Z,40.70
2018-02-21T11:56:04.805Z,40.70
2018-02-21T11:58:33.059Z,41.10
2018-02-21T12:01:00.544Z,41.00
2018-02-21T12:03:28.853Z,43.40
2018-02-21T12:05:56.371Z,43.40
2018-02-21T12:08:23.942Z,45.10
2018-02-21T12:10:52.229Z,46.80
2018-02-21T12:13:19.729Z,46.70
2018-02-21T12:15:47.292Z,47.40
2018-02-21T12:18:14.880Z,48.10
2018-02-21T12:20:43.161Z,45.10
2018-02-21T12:23:11.400Z,43.00
2018-02-21T12:25:38.896Z,42.80
2018-02-21T12:28:07.168Z,42.60
2018-02-21T12:30:34.661Z,42.50
2018-02-21T12:33:02.675Z,43.00
2018-02-21T12:35:30.161Z,43.10
2018-02-21T12:37:58.434Z,43.80
2018-02-21T12:40:32.477Z,43.30
2018-02-21T12:42:59.952Z,43.30
2018-02-21T12:45:27.458Z,43.50
2018-02-21T12:47:55.736Z,43.60
2018-02-21T12:50:23.985Z,42.90
2018-02-21T12:52:51.573Z,42.80
2018-02-21T12:55:19.829Z,43.10
2018-02-21T12:57:47.320Z,43.00
2018-02-21T13:00:14.832Z,40.50
2018-02-21T13:02:42.435Z,41.00
2018-02-21T13:05:09.975Z,40.50
2018-02-21T13:07:38.243Z,43.30
2018-02-21T13:10:05.814Z,43.30
2018-02-21T13:12:34.065Z,43.50
2018-02-21T13:15:01.637Z,43.40
2018-02-21T13:17:29.196Z,43.30
2018-02-21T13:19:56.680Z,43.40
2018-02-21T13:22:24.161Z,44.50
2018-02-21T13:24:51.638Z,44.50
2018-02-21T13:27:19.119Z,43.80
2018-02-21T13:29:46.791Z,44.40
2018-02-21T13:32:15.040Z,43.60
2018-02-21T13:34:42.519Z,43.60
2018-02-21T13:37:10.009Z,43.80
2018-02-21T13:39:37.537Z,44.40
2018-02-21T13:42:05.819Z,44.00
2018-02-21T13:44:33.296Z,44.00
2018-02-21T13:47:00.828Z,43.70
2018-02-21T13:49:29.105Z,43.30
2018-02-21T13:51:57.341Z,43.70
2018-02-21T13:54:24.829Z,43.60
2018-02-21T13:56:52.304Z,43.00
2018-02-21T13:59:20.560Z,42.80
2018-02-21T14:01:48.131Z,42.80
2018-02-21T14:04:16.385Z,41.80
2018-02-21T14:06:43.869Z,41.70
2018-02-21T14:09:12.127Z,41.60
2018-02-21T14:11:39.695Z,41.60
2018-02-21T14:14:07.964Z,42.00
2018-02-21T14:16:35.532Z,41.90
2018-02-21T14:19:03.812Z,41.00
2018-02-21T14:21:32.060Z,40.20
2018-02-21T14:23:59.724Z,40.10
2018-02-21T14:26:28.015Z,39.80
2018-02-21T14:28:56.277Z,40.50
2018-02-21T14:31:23.866Z,40.40
2018-02-21T14:33:52.140Z,41.10
2018-02-21T14:36:20.392Z,41.90
2018-02-21T14:38:48.632Z,40.40
2018-02-21T14:41:16.136Z,40.40
2018-02-21T14:43:44.385Z,41.30
2018-02-21T14:46:11.872Z,41.20
2018-02-21T14:48:39.344Z,42.00
2018-02-21T14:51:06.905Z,42.40
2018-02-21T14:53:34.387Z,42.40
2018-02-21T14:56:01.900Z,42.30
2018-02-21T14:58:29.380Z,43.10
2018-02-21T15:00:56.916Z,42.50
2018-02-21T15:03:25.176Z,42.50
2018-02-21T15:05:52.660Z,42.40
2018-02-21T15:08:20.919Z,42.80
2018-02-21T15:10:49.172Z,43.70
2018-02-21T15:13:16.648Z,43.10
2018-02-21T15:15:44.133Z,43.10
2018-02-21T15:18:11.627Z,43.80
2018-02-21T15:20:39.103Z,43.10
2018-02-21T15:23:06.688Z,43.60
2018-02-21T15:25:34.965Z,43.50
2018-02-21T15:28:03.274Z,43.80
2018-02-21T15:30:30.745Z,43.70
2018-02-21T15:32:58.223Z,43.90
2018-02-21T15:35:25.804Z,44.10
2018-02-21T15:37:53.285Z,44.20
2018-02-21T15:40:20.780Z,44.10
2018-02-21T15:42:48.321Z,43.60
2018-02-21T15:45:15.865Z,43.80
2018-02-21T15:47:43.308Z,43.60
2018-02-21T15:50:11.557Z,43.40
2018-02-21T15:52:39.132Z,43.30
2018-02-21T15:55:07.384Z,44.30
2018-02-21T15:57:34.867Z,44.30
2018-02-21T16:00:03.140Z,45.10
2018-02-21T16:02:31.388Z,45.30
2018-02-21T16:04:58.971Z,45.20
2018-02-21T16:07:28.117Z,45.60
2018-02-21T16:09:55.599Z,45.70
2018-02-21T16:12:23.088Z,46.10
2018-02-21T16:14:51.332Z,46.90
2018-02-21T16:17:18.813Z,47.50
2018-02-21T16:19:47.073Z,47.90
2018-02-21T16:22:14.580Z,47.30
2018-02-21T16:24:42.065Z,47.50
2018-02-21T16:27:09.608Z,47.80
2018-02-21T16:29:37.097Z,47.70
2018-02-21T16:32:04.578Z,47.80
2018-02-21T16:34:32.834Z,48.20
2018-02-21T16:37:00.330Z,48.10
2018-02-21T16:39:27.864Z,48.30
2018-02-21T16:41:56.129Z,48.80
2018-02-21T16:44:23.652Z,48.30
2018-02-21T16:46:51.138Z,48.40
2018-02-21T16:49:18.628Z,48.50
2018-02-21T16:51:46.879Z,48.40
2018-02-21T16:54:31.968Z,48.30
2018-02-21T16:57:00.220Z,48.70
2018-02-21T16:59:27.701Z,48.60
2018-02-21T17:01:59.948Z,48.60
2018-02-21T17:04:27.419Z,48.50
2018-02-21T17:06:56.022Z,48.80
2018-02-21T17:09:23.509Z,48.70
2018-02-21T17:11:50.987Z,49.10
2018-02-21T17:14:18.470Z,49.10
2018-02-21T17:16:45.948Z,49.30
2018-02-21T17:19:14.192Z,49.50
2018-02-21T17:21:41.768Z,49.50
2018-02-21T17:24:10.040Z,49.20
2018-02-21T17:26:38.315Z,49.20
2018-02-21T17:29:06.563Z,49.40
2018-02-21T17:31:34.061Z,49.40
2018-02-21T17:34:02.312Z,49.40
2018-02-21T17:36:29.783Z,49.30
2018-02-21T17:38:58.035Z,49.40
2018-02-21T17:41:31.183Z,49.40
2018-02-21T17:43:58.704Z,49.40
2018-02-21T17:46:26.956Z,49.60
2018-02-21T17:48:54.545Z,49.60
2018-02-21T17:51:22.025Z,49.80
2018-02-21T17:53:49.558Z,49.90
2018-02-21T17:56:17.812Z,50.20
2018-02-21T17:58:45.286Z,50.20
2018-02-21T18:01:13.536Z,50.40
2018-02-21T18:03:41.050Z,50.20
2018-02-21T18:06:08.579Z,50.50
2018-02-21T18:08:36.851Z,50.60
2018-02-21T18:11:04.408Z,50.50
2018-02-21T18:13:31.952Z,50.40
2018-02-21T18:15:59.555Z,50.60
2018-02-21T18:18:27.077Z,50.50
2018-02-21T18:20:55.372Z,50.80
2018-02-21T18:23:23.632Z,50.90
2018-02-21T18:25:51.126Z,50.80
2018-02-21T18:28:18.604Z,51.30
2018-02-21T18:30:46.093Z,51.00
2018-02-21T18:33:13.676Z,50.90
2018-02-21T18:35:41.991Z,51.30
2018-02-21T18:38:10.203Z,51.50
2018-02-21T18:40:37.729Z,51.50
2018-02-21T18:43:05.212Z,51.40
2018-02-21T18:45:32.795Z,51.70
2018-02-21T18:48:01.047Z,52.50
2018-02-21T18:50:28.528Z,52.20
2018-02-21T18:52:56.777Z,52.30
2018-02-21T18:55:24.255Z,52.30
2018-02-21T18:57:51.746Z,52.50
2018-02-21T19:00:19.271Z,52.60
2018-02-21T19:02:46.835Z,52.80
2018-02-21T19:05:15.088Z,52.60
2018-02-21T19:07:42.581Z,52.60
2018-02-21T19:10:10.836Z,53.00
2018-02-21T19:12:39.113Z,52.90
2018-02-21T19:15:07.492Z,52.90
2018-02-21T19:17:35.820Z,52.90
2018-02-21T19:20:04.156Z,52.90
2018-02-21T19:22:31.638Z,52.90
2018-02-21T19:24:59.128Z,53.10
2018-02-21T19:27:26.630Z,53.10
2018-02-21T19:29:54.910Z,53.50
2018-02-21T19:32:23.169Z,53.20
2018-02-21T19:34:51.431Z,53.50
2018-02-21T19:37:18.959Z,53.50
2018-02-21T19:39:46.476Z,53.70
2018-02-21T19:42:14.780Z,54.00
2018-02-21T19:44:42.269Z,53.90
2018-02-21T19:47:09.769Z,54.10
2018-02-21T19:49:37.268Z,54.30
2018-02-21T19:52:04.756Z,54.30
2018-02-21T19:54:32.332Z,54.50
2018-02-21T19:57:00.585Z,54.30
2018-02-21T19:59:28.072Z,54.30
2018-02-21T20:01:56.359Z,55.10
2018-02-21T20:04:23.877Z,55.00
2018-02-21T20:06:51.383Z,55.20
2018-02-21T20:09:18.885Z,55.40
2018-02-21T20:11:46.384Z,55.40
2018-02-21T20:14:13.888Z,55.50
2018-02-21T20:16:41.419Z,55.90
2018-02-21T20:19:08.865Z,56.50
2018-02-21T20:21:36.352Z,57.30
2018-02-21T20:24:03.843Z,58.00
2018-02-21T20:26:31.341Z,58.00
2018-02-21T20:28:58.945Z,58.40
2018-02-21T20:31:26.684Z,58.60
2018-02-21T20:33:54.173Z,58.90
2018-02-21T20:36:21.680Z,59.60
2018-02-21T20:38:49.203Z,60.30
2018-02-21T20:41:16.683Z,60.40
2018-02-21T20:43:44.327Z,61.30
2018-02-21T20:46:12.657Z,62.10
2018-02-21T20:48:40.139Z,62.10
2018-02-21T20:51:08.313Z,61.90
2018-02-21T20:53:35.788Z,62.50
2018-02-21T20:56:03.272Z,62.80
2018-02-21T20:58:30.975Z,62.60
2018-02-21T21:00:58.857Z,63.40
2018-02-21T21:03:26.436Z,63.00
2018-02-21T21:05:54.684Z,63.70
2018-02-21T21:08:22.164Z,63.70
2018-02-21T21:10:49.649Z,63.80
2018-02-21T21:13:17.148Z,65.10
2018-02-21T21:15:44.747Z,64.20
2018-02-21T21:18:12.996Z,65.50
2018-02-21T21:20:40.480Z,65.40
2018-02-21T21:23:08.796Z,65.40
2018-02-21T21:25:36.280Z,65.30
2018-02-21T21:28:03.786Z,65.60
2018-02-21T21:30:32.029Z,66.10
2018-02-21T21:32:59.729Z,66.00
2018-02-21T21:35:27.213Z,66.80
2018-02-21T21:37:54.718Z,66.10
2018-02-21T21:40:22.972Z,66.80
2018-02-21T21:42:50.551Z,66.70
2018-02-21T21:45:18.880Z,66.70
2018-02-21T21:47:47.084Z,66.60
2018-02-21T21:50:14.569Z,66.60
2018-02-21T21:52:42.812Z,66.80
2018-02-21T21:55:10.411Z,66.80
2018-02-21T21:57:38.651Z,67.80
2018-02-21T22:00:06.155Z,67.80
2018-02-21T22:02:33.652Z,67.30
2018-02-21T22:05:01.137Z,67.40
2018-02-21T22:07:28.623Z,67.70
2018-02-21T22:09:56.103Z,67.50
2018-02-21T22:12:23.596Z,67.60
2018-02-21T22:14:51.172Z,68.30
2018-02-21T22:17:19.428Z,69.20
2018-02-21T22:19:46.905Z,68.40
2018-02-21T22:22:15.159Z,68.40
2018-02-21T22:24:42.643Z,68.50
2018-02-21T22:27:10.991Z,68.80
2018-02-21T22:29:38.496Z,68.80
2018-02-21T22:32:06.035Z,69.60
2018-02-21T22:34:34.276Z,69.60
2018-02-21T22:37:01.748Z,69.70
2018-02-21T22:39:30.008Z,70.40
2018-02-21T22:41:57.488Z,70.30
2018-02-21T22:44:25.056Z,70.50
2018-02-21T22:46:53.304Z,70.70
2018-02-21T22:49:20.820Z,71.40
2018-02-21T22:51:48.328Z,71.20
2018-02-21T22:54:15.805Z,71.00
2018-02-21T22:56:44.080Z,71.40
2018-02-21T22:59:12.356Z,71.40
2018-02-21T23:01:40.593Z,71.10
2018-02-21T23:04:08.187Z,71.20
2018-02-21T23:06:36.449Z,71.40
2018-02-21T23:09:03.941Z,71.50
2018-02-21T23:11:31.455Z,71.60
2018-02-21T23:13:59.080Z,71.70
2018-02-21T23:16:26.568Z,71.60
2018-02-21T23:18:54.048Z,72.00
2018-02-21T23:21:21.532Z,72.40
2018-02-21T23:23:49.016Z,72.90
2018-02-21T23:26:16.533Z,72.80
2018-02-21T23:28:44.780Z,73.70
2018-02-21T23:31:12.269Z,73.70
2018-02-21T23:33:40.523Z,73.90
2018-02-21T23:36:08.100Z,73.90
2018-02-21T23:38:36.508Z,73.60
2018-02-21T23:41:03.988Z,73.50
2018-02-21T23:43:31.466Z,73.50
2018-02-21T23:45:58.949Z,73.40
2018-02-21T23:48:27.207Z,74.30
2018-02-21T23:50:54.718Z,74.40
2018-02-21T23:53:22.210Z,73.90
2018-02-21T23:55:49.736Z,74.00
2018-02-21T23:58:17.255Z,73.60
